Time;durP1;ratioP1;P1;durP2;ratioP2;P2;SDS_P1;SDS_P2;PMS_P1;PMS_P2;Temp;Humidity;BMP_temperature;BMP_pressure;BME280_temperature;BME280_humidity;BME280_pressure;Samples;Min_cycle;Max_cycle;Signal;HPM_P1;HPM_P2
2022/10/05 00:01:27;;;;;;;7.40;4.50;;;;;;;;;;105054;1294;24575;-34
2022/10/05 00:03:59;;;;;;;7.30;4.50;;;;;;;;;;105074;1292;22483;-34
2022/10/05 00:06:29;;;;;;;6.60;4.20;;;;;;;;;;105070;1291;22509;-33
2022/10/05 00:09:00;;;;;;;6.60;4.50;;;;;;;;;;105165;1292;22472;-34
2022/10/05 00:11:29;;;;;;;6.30;4.50;;;;;;;;;;105187;1291;25253;-34
2022/10/05 00:13:57;;;;;;;7.20;4.60;;;;;;;;;;105201;1292;22462;-34
2022/10/05 00:16:26;;;;;;;6.70;4.00;;;;;;;;;;105104;1291;22503;-34
2022/10/05 00:18:55;;;;;;;6.80;4.40;;;;;;;;;;105054;1287;22616;-34
2022/10/05 00:21:25;;;;;;;6.60;4.60;;;;;;;;;;105052;1282;22548;-34
2022/10/05 00:23:56;;;;;;;6.20;4.30;;;;;;;;;;105052;1286;22484;-33
2022/10/05 00:26:25;;;;;;;6.80;4.80;;;;;;;;;;105060;1291;22480;-34
2022/10/05 00:28:54;;;;;;;7.50;4.40;;;;;;;;;;105195;1291;22465;-33
2022/10/05 00:31:24;;;;;;;6.30;4.20;;;;;;;;;;105188;1292;22497;-34
2022/10/05 00:33:53;;;;;;;7.00;4.20;;;;;;;;;;105195;1292;22492;-34
2022/10/05 00:36:24;;;;;;;7.00;4.00;;;;;;;;;;105113;1290;24563;-34
2022/10/05 00:38:54;;;;;;;5.70;3.80;;;;;;;;;;105066;1287;22559;-34
2022/10/05 00:41:24;;;;;;;7.00;4.20;;;;;;;;;;105049;1292;22520;-33
2022/10/05 00:44:00;;;;;;;6.40;4.10;;;;;;;;;;105046;1293;24395;-34
2022/10/05 00:46:35;;;;;;;6.10;3.90;;;;;;;;;;105037;1286;22487;-33
2022/10/05 00:49:08;;;;;;;7.30;4.00;;;;;;;;;;105200;1292;22529;-33
2022/10/05 00:51:38;;;;;;;6.10;3.80;;;;;;;;;;105216;1292;24613;-33
2022/10/05 00:54:19;;;;;;;5.90;3.90;;;;;;;;;;105153;1292;22507;-33
2022/10/05 00:57:00;;;;;;;6.60;4.00;;;;;;;;;;105115;1293;25443;-33
2022/10/05 00:59:35;;;;;;;6.00;3.90;;;;;;;;;;105064;1293;24371;-34
2022/10/05 01:02:10;;;;;;;6.50;4.00;;;;;;;;;;105089;1292;22564;-33
2022/10/05 01:04:41;;;;;;;5.70;3.70;;;;;;;;;;105041;1292;22484;-33
2022/10/05 01:07:14;;;;;;;6.40;3.70;;;;;;;;;;105042;1293;22482;-33
2022/10/05 01:09:47;;;;;;;6.10;3.90;;;;;;;;;;105189;1285;22498;-33
2022/10/05 01:12:22;;;;;;;6.40;3.80;;;;;;;;;;105196;1292;22512;-33
2022/10/05 01:14:55;;;;;;;6.40;4.10;;;;;;;;;;105190;1299;24648;-33
2022/10/05 01:17:26;;;;;;;6.00;3.90;;;;;;;;;;105131;1292;22508;-34
2022/10/05 01:20:11;;;;;;;6.00;3.70;;;;;;;;;;105069;1291;22485;-34
2022/10/05 01:22:53;;;;;;;5.80;3.90;;;;;;;;;;105064;1293;22526;-34
2022/10/05 01:25:23;;;;;;;5.70;3.70;;;;;;;;;;105068;1293;22815;-33
2022/10/05 01:27:59;;;;;;;5.50;3.70;;;;;;;;;;105085;1288;26862;-33
2022/10/05 01:30:30;;;;;;;5.90;3.50;;;;;;;;;;105190;1291;22453;-33
2022/10/05 01:33:02;;;;;;;6.40;4.00;;;;;;;;;;105164;1290;22596;-33
2022/10/05 01:35:37;;;;;;;6.50;3.90;;;;;;;;;;105169;1292;22486;-33
2022/10/05 01:38:13;;;;;;;6.00;3.70;;;;;;;;;;105077;1292;22492;-33
2022/10/05 01:40:46;;;;;;;5.70;4.00;;;;;;;;;;105014;1286;22534;-32
2022/10/05 01:43:18;;;;;;;5.90;3.80;;;;;;;;;;105062;1293;22499;-32
2022/10/05 01:45:51;;;;;;;6.00;3.70;;;;;;;;;;105028;1290;24715;-33
2022/10/05 01:48:24;;;;;;;6.20;3.80;;;;;;;;;;105067;1291;22516;-33
2022/10/05 01:50:56;;;;;;;6.30;3.60;;;;;;;;;;105147;1291;22486;-34
2022/10/05 01:53:31;;;;;;;6.10;3.70;;;;;;;;;;105167;1284;24619;-34
2022/10/05 01:56:05;;;;;;;5.40;3.70;;;;;;;;;;105185;1290;22528;-34
2022/10/05 01:58:40;;;;;;;6.10;3.50;;;;;;;;;;105084;1291;22492;-34
2022/10/05 02:01:16;;;;;;;5.30;3.40;;;;;;;;;;105100;1286;22487;-34
2022/10/05 02:03:47;;;;;;;6.30;3.70;;;;;;;;;;105083;1286;22490;-34
2022/10/05 02:06:18;;;;;;;6.30;3.70;;;;;;;;;;105030;1300;23745;-34
2022/10/05 02:08:48;;;;;;;5.80;3.60;;;;;;;;;;105046;1287;22508;-35
2022/10/05 02:11:18;;;;;;;5.70;3.40;;;;;;;;;;105164;1291;24603;-35
2022/10/05 02:13:48;;;;;;;6.00;3.60;;;;;;;;;;105176;1292;22491;-33
2022/10/05 02:16:20;;;;;;;5.80;3.70;;;;;;;;;;105151;1292;23074;-33
2022/10/05 02:18:50;;;;;;;6.00;3.50;;;;;;;;;;105095;1292;22497;-33
2022/10/05 02:21:20;;;;;;;5.90;3.50;;;;;;;;;;105077;1292;22502;-34
2022/10/05 02:23:52;;;;;;;5.60;3.60;;;;;;;;;;105047;1290;25382;-34
2022/10/05 02:26:21;;;;;;;5.50;3.40;;;;;;;;;;105053;1286;22560;-34
2022/10/05 02:28:52;;;;;;;5.30;3.50;;;;;;;;;;105078;1292;24444;-34
2022/10/05 02:31:23;;;;;;;5.60;3.40;;;;;;;;;;105193;1284;22470;-34
2022/10/05 02:34:13;;;;;;;5.40;3.50;;;;;;;;;;105210;1292;25525;-33
2022/10/05 02:36:42;;;;;;;5.70;3.50;;;;;;;;;;105185;1292;24348;-33
2022/10/05 02:39:16;;;;;;;5.30;3.40;;;;;;;;;;105080;1292;22496;-33
2022/10/05 02:41:50;;;;;;;6.60;3.90;;;;;;;;;;105086;1293;24620;-34
2022/10/05 02:44:17;;;;;;;;;;;;;;;;;;105125;1292;22505;-32
2022/10/05 02:46:49;;;;;;;5.40;3.30;;;;;;;;;;105071;1292;22784;-33
2022/10/05 02:49:25;;;;;;;5.40;3.60;;;;;;;;;;105087;1292;24331;-33
2022/10/05 02:51:58;;;;;;;5.10;3.30;;;;;;;;;;105153;1291;22485;-33
2022/10/05 02:54:34;;;;;;;5.60;3.40;;;;;;;;;;105176;1288;22485;-33
2022/10/05 02:57:06;;;;;;;5.90;3.60;;;;;;;;;;105174;1284;22511;-33
2022/10/05 02:59:37;;;;;;;5.60;3.80;;;;;;;;;;105000;1284;41631;-34
2022/10/05 03:02:10;;;;;;;5.70;3.20;;;;;;;;;;104961;1293;22478;-33
2022/10/05 03:04:38;;;;;;;;;;;;;;;;;;105081;1286;22500;-34
2022/10/05 03:07:12;;;;;;;5.20;3.40;;;;;;;;;;105073;1293;22629;-33
2022/10/05 03:09:42;;;;;;;6.00;3.50;;;;;;;;;;105043;1277;22591;-33
2022/10/05 03:12:15;;;;;;;6.20;3.40;;;;;;;;;;105174;1288;24639;-33
2022/10/05 03:14:48;;;;;;;5.90;3.40;;;;;;;;;;105152;1291;22578;-33
2022/10/05 03:17:19;;;;;;;5.20;3.30;;;;;;;;;;105220;1291;26960;-34
2022/10/05 03:19:57;;;;;;;5.80;3.50;;;;;;;;;;105093;1292;25507;-34
2022/10/05 03:22:33;;;;;;;5.50;3.60;;;;;;;;;;105077;1293;22482;-34
2022/10/05 03:25:09;;;;;;;6.00;3.40;;;;;;;;;;105075;1293;22524;-34
2022/10/05 03:27:42;;;;;;;5.60;3.70;;;;;;;;;;105056;1293;22693;-33
2022/10/05 03:30:12;;;;;;;5.00;3.40;;;;;;;;;;105085;1286;22590;-34
2022/10/05 03:32:48;;;;;;;6.40;3.60;;;;;;;;;;105168;1284;22519;-33
2022/10/05 03:35:22;;;;;;;5.70;3.80;;;;;;;;;;105171;1292;22610;-33
2022/10/05 03:37:55;;;;;;;5.90;3.70;;;;;;;;;;105194;1285;22499;-34
2022/10/05 03:40:23;;;;;;;;;;;;;;;;;;105158;1284;22474;-34
2022/10/05 03:42:58;;;;;;;5.50;3.30;;;;;;;;;;105067;1286;22504;-34
2022/10/05 03:45:30;;;;;;;5.20;3.30;;;;;;;;;;105036;1287;22499;-33
2022/10/05 03:48:01;;;;;;;5.40;3.20;;;;;;;;;;105001;1293;22494;-34
2022/10/05 03:50:35;;;;;;;5.50;3.70;;;;;;;;;;104971;1299;22630;-33
2022/10/05 03:53:05;;;;;;;5.50;3.60;;;;;;;;;;105210;1292;22475;-34
2022/10/05 03:55:36;;;;;;;5.80;3.40;;;;;;;;;;105223;1298;22613;-34
2022/10/05 03:58:10;;;;;;;5.10;3.20;;;;;;;;;;105207;1284;22534;-34
2022/10/05 04:00:39;;;;;;;5.40;3.40;;;;;;;;;;105141;1284;25294;-34
2022/10/05 04:03:11;;;;;;;5.20;3.40;;;;;;;;;;105071;1290;22549;-34
2022/10/05 04:05:44;;;;;;;5.20;3.40;;;;;;;;;;105071;1292;22515;-33
2022/10/05 04:08:20;;;;;;;5.90;3.70;;;;;;;;;;105045;1293;22529;-33
2022/10/05 04:10:50;;;;;;;5.30;3.50;;;;;;;;;;105052;1291;22476;-33
2022/10/05 04:13:23;;;;;;;5.20;3.40;;;;;;;;;;105208;1292;26982;-34
2022/10/05 04:15:56;;;;;;;5.90;3.30;;;;;;;;;;105196;1292;25272;-34
2022/10/05 04:18:26;;;;;;;5.20;3.20;;;;;;;;;;105161;1292;24542;-33
2022/10/05 04:20:57;;;;;;;5.40;3.50;;;;;;;;;;105123;1285;22627;-34
2022/10/05 04:23:32;;;;;;;4.60;3.10;;;;;;;;;;105079;1286;22478;-34
2022/10/05 04:26:04;;;;;;;5.70;3.20;;;;;;;;;;105050;1287;22760;-33
2022/10/05 04:28:36;;;;;;;5.40;3.50;;;;;;;;;;105070;1286;25269;-33
2022/10/05 04:31:07;;;;;;;5.20;3.50;;;;;;;;;;105034;1287;24505;-33
2022/10/05 04:33:36;;;;;;;5.30;3.10;;;;;;;;;;105190;1288;22602;-33
2022/10/05 04:36:15;;;;;;;5.30;3.30;;;;;;;;;;105138;1291;22590;-33
2022/10/05 04:39:00;;;;;;;5.20;3.30;;;;;;;;;;105177;1294;22478;-33
2022/10/05 04:41:40;;;;;;;4.80;3.10;;;;;;;;;;105116;1291;22471;-33
2022/10/05 04:44:16;;;;;;;5.10;3.20;;;;;;;;;;105104;1290;22692;-33
2022/10/05 04:46:53;;;;;;;5.70;3.40;;;;;;;;;;105043;1292;22608;-33
2022/10/05 04:49:30;;;;;;;5.40;3.20;;;;;;;;;;105075;1286;22506;-33
2022/10/05 04:52:04;;;;;;;5.10;3.30;;;;;;;;;;105069;1292;22481;-33
2022/10/05 04:54:41;;;;;;;6.10;3.40;;;;;;;;;;105160;1284;22491;-34
2022/10/05 04:57:13;;;;;;;6.50;3.50;;;;;;;;;;105182;1284;23232;-34
2022/10/05 04:59:52;;;;;;;6.10;3.80;;;;;;;;;;105165;1292;22484;-34
2022/10/05 05:02:25;;;;;;;6.30;4.00;;;;;;;;;;105075;1286;22488;-34
2022/10/05 05:04:53;;;;;;;;;;;;;;;;;;105067;1293;22450;-32
2022/10/05 05:07:28;;;;;;;5.90;3.40;;;;;;;;;;105050;1294;22618;-32
2022/10/05 05:10:07;;;;;;;6.30;3.70;;;;;;;;;;105078;1292;22489;-33
2022/10/05 05:12:42;;;;;;;6.20;3.50;;;;;;;;;;105069;1286;22503;-33
2022/10/05 05:15:28;;;;;;;5.80;3.50;;;;;;;;;;105139;1289;24578;-33
2022/10/05 05:18:10;;;;;;;6.80;3.60;;;;;;;;;;105165;1284;22624;-32
2022/10/05 05:20:49;;;;;;;6.40;4.00;;;;;;;;;;105125;1278;22518;-33
2022/10/05 05:23:24;;;;;;;6.20;3.80;;;;;;;;;;105051;1294;22485;-33
2022/10/05 05:25:58;;;;;;;5.80;3.60;;;;;;;;;;105038;1286;22531;-33
2022/10/05 05:28:29;;;;;;;5.80;3.50;;;;;;;;;;105067;1293;22491;-33
2022/10/05 05:31:01;;;;;;;5.70;3.50;;;;;;;;;;105056;1294;22543;-34
2022/10/05 05:33:35;;;;;;;5.40;3.70;;;;;;;;;;105091;1284;22501;-33
2022/10/05 05:36:11;;;;;;;5.60;3.60;;;;;;;;;;105161;1289;22461;-33
2022/10/05 05:38:41;;;;;;;5.90;3.60;;;;;;;;;;105107;1292;24606;-33
2022/10/05 05:41:12;;;;;;;6.70;4.20;;;;;;;;;;105125;1291;22528;-33
2022/10/05 05:43:50;;;;;;;9.00;4.40;;;;;;;;;;105053;1292;24366;-33
2022/10/05 05:46:24;;;;;;;8.60;4.50;;;;;;;;;;105073;1287;22512;-36
2022/10/05 05:48:53;;;;;;;8.30;4.80;;;;;;;;;;105018;1286;22474;-36
2022/10/05 05:51:25;;;;;;;8.80;4.70;;;;;;;;;;105066;1293;22494;-35
2022/10/05 05:53:58;;;;;;;7.40;4.30;;;;;;;;;;105113;1292;22471;-36
2022/10/05 05:56:26;;;;;;;;;;;;;;;;;;105135;1284;22468;-36
2022/10/05 05:58:57;;;;;;;9.30;4.90;;;;;;;;;;105154;1284;22507;-37
2022/10/05 06:01:30;;;;;;;8.40;5.20;;;;;;;;;;105154;1285;22510;-38
2022/10/05 06:04:01;;;;;;;9.10;4.80;;;;;;;;;;105048;1290;22503;-37
2022/10/05 06:06:31;;;;;;;9.90;5.10;;;;;;;;;;105078;1292;22522;-36
2022/10/05 06:09:02;;;;;;;9.40;4.70;;;;;;;;;;105030;1293;22473;-38
2022/10/05 06:11:32;;;;;;;8.50;5.00;;;;;;;;;;105077;1285;22485;-34
2022/10/05 06:14:05;;;;;;;9.20;5.10;;;;;;;;;;105067;1285;25685;-34
2022/10/05 06:16:36;;;;;;;10.10;5.10;;;;;;;;;;105150;1292;25365;-35
2022/10/05 06:19:09;;;;;;;10.20;5.00;;;;;;;;;;105146;1291;24596;-33
2022/10/05 06:21:37;;;;;;;;;;;;;;;;;;105168;1292;26518;-32
2022/10/05 06:24:10;;;;;;;7.60;4.20;;;;;;;;;;105063;1294;22617;-32
2022/10/05 06:26:58;;;;;;;8.30;4.60;;;;;;;;;;105069;1292;22491;-32
2022/10/05 06:29:35;;;;;;;7.40;4.50;;;;;;;;;;105036;1293;24633;-35
2022/10/05 06:32:09;;;;;;;9.10;4.90;;;;;;;;;;105067;1286;26588;-36
2022/10/05 06:34:46;;;;;;;9.30;5.10;;;;;;;;;;105005;1286;22471;-35
2022/10/05 06:37:18;;;;;;;9.90;4.90;;;;;;;;;;105130;1277;22488;-36
2022/10/05 06:40:01;;;;;;;9.00;4.70;;;;;;;;;;105158;1278;24395;-36
2022/10/05 06:42:38;;;;;;;8.80;4.60;;;;;;;;;;105124;1285;22578;-37
2022/10/05 06:45:12;;;;;;;8.10;4.90;;;;;;;;;;105075;1291;22489;-36
2022/10/05 06:47:44;;;;;;;9.50;5.10;;;;;;;;;;105040;1294;22491;-37
2022/10/05 06:50:16;;;;;;;8.20;4.70;;;;;;;;;;105063;1290;22585;-37
2022/10/05 06:52:53;;;;;;;9.40;4.90;;;;;;;;;;105043;1285;22473;-35
2022/10/05 06:55:28;;;;;;;8.80;4.40;;;;;;;;;;105083;1294;22594;-35
2022/10/05 06:58:13;;;;;;;7.30;4.40;;;;;;;;;;105110;1292;22527;-37
2022/10/05 07:00:43;;;;;;;7.60;4.30;;;;;;;;;;105107;1284;22493;-35
2022/10/05 07:03:17;;;;;;;7.70;4.60;;;;;;;;;;105098;1292;22486;-37
2022/10/05 07:05:52;;;;;;;8.00;4.20;;;;;;;;;;105002;1286;22999;-35
2022/10/05 07:08:25;;;;;;;7.30;4.20;;;;;;;;;;105043;1283;23099;-35
2022/10/05 07:10:59;;;;;;;6.80;4.20;;;;;;;;;;105042;1286;22519;-35
2022/10/05 07:13:38;;;;;;;8.70;4.40;;;;;;;;;;105057;1287;25333;-35
2022/10/05 07:16:11;;;;;;;6.30;4.20;;;;;;;;;;105079;1291;22560;-35
2022/10/05 07:18:49;;;;;;;7.20;4.80;;;;;;;;;;105131;1292;22524;-37
2022/10/05 07:21:23;;;;;;;7.10;4.10;;;;;;;;;;105133;1292;22546;-37
2022/10/05 07:23:58;;;;;;;6.70;3.90;;;;;;;;;;105107;1292;22476;-36
2022/10/05 07:26:30;;;;;;;8.40;4.10;;;;;;;;;;104988;1286;23845;-36
2022/10/05 07:29:13;;;;;;;8.60;4.40;;;;;;;;;;105042;1294;22453;-36
2022/10/05 07:31:45;;;;;;;8.80;4.30;;;;;;;;;;105031;1287;22490;-36
2022/10/05 07:34:18;;;;;;;7.00;4.20;;;;;;;;;;105015;1293;24058;-36
2022/10/05 07:39:38;;;;;;;6.90;4.30;;;;;;;;;;105133;1284;22490;-34
2022/10/05 07:42:17;;;;;;;6.80;3.80;;;;;;;;;;105122;1282;25609;-32
2022/10/05 07:44:48;;;;;;;6.20;3.70;;;;;;;;;;105546;1278;22519;-32
2022/10/05 07:47:23;;;;;;;6.30;4.20;;;;;;;;;;105184;1277;22472;-37
2022/10/05 07:49:56;;;;;;;6.70;4.00;;;;;;;;;;104957;1294;22505;-36
2022/10/05 07:52:23;;;;;;;;;;;;;;;;;;105400;1280;23875;-33
2022/10/05 07:54:59;;;;;;;7.80;4.10;;;;;;;;;;104973;1285;24213;-35
2022/10/05 07:57:34;;;;;;;9.40;4.20;;;;;;;;;;105045;1293;22494;-36
2022/10/05 08:00:04;;;;;;;6.90;4.20;;;;;;;;;;105060;1287;24382;-36
2022/10/05 08:02:37;;;;;;;7.50;4.40;;;;;;;;;;105026;1290;22524;-35
2022/10/05 08:05:05;;;;;;;;;;;;;;;;;;105292;1272;24459;-36
2022/10/05 08:07:35;;;;;;;8.20;4.60;;;;;;;;;;105038;1293;22492;-36
2022/10/05 08:10:14;;;;;;;6.10;3.80;;;;;;;;;;105092;1287;22483;-36
2022/10/05 08:12:52;;;;;;;6.90;3.90;;;;;;;;;;105071;1293;22737;-37
2022/10/05 08:18:02;;;;;;;6.80;4.00;;;;;;;;;;105012;1287;22496;-37
2022/10/05 08:20:35;;;;;;;6.70;4.20;;;;;;;;;;104957;1293;22539;-34
2022/10/05 08:23:22;;;;;;;6.70;4.10;;;;;;;;;;104924;1301;23561;-34
2022/10/05 08:25:55;;;;;;;6.90;3.70;;;;;;;;;;104922;1302;22704;-32
2022/10/05 08:28:22;;;;;;;;;;;;;;;;;;104893;1295;23379;-32
2022/10/05 08:31:00;;;;;;;7.30;3.50;;;;;;;;;;104970;1293;22542;-32
2022/10/05 08:33:31;;;;;;;6.70;3.70;;;;;;;;;;104928;1294;22497;-33
2022/10/05 08:36:05;;;;;;;5.80;3.20;;;;;;;;;;104889;1300;22495;-32
2022/10/05 08:38:34;;;;;;;6.70;3.80;;;;;;;;;;104961;1301;23296;-32
2022/10/05 08:41:32;;;;;;;6.60;3.50;;;;;;;;;;104934;1294;25360;-32
2022/10/05 08:44:18;;;;;;;6.30;4.00;;;;;;;;;;104937;1295;22475;-31
2022/10/05 08:47:15;;;;;;;6.60;3.60;;;;;;;;;;104833;1295;24489;-31
2022/10/05 08:49:55;;;;;;;5.70;3.50;;;;;;;;;;104473;1300;22495;-31
2022/10/05 08:52:27;;;;;;;6.60;3.70;;;;;;;;;;104834;1296;22640;-32
2022/10/05 08:55:07;;;;;;;6.20;3.50;;;;;;;;;;104924;1296;22498;-35
2022/10/05 08:57:45;;;;;;;5.90;3.60;;;;;;;;;;104941;1300;23919;-33
2022/10/05 09:00:17;;;;;;;6.80;3.70;;;;;;;;;;104982;1297;25508;-33
2022/10/05 09:03:13;;;;;;;5.60;3.40;;;;;;;;;;105005;1293;25496;-33
2022/10/05 09:05:58;;;;;;;6.40;3.50;;;;;;;;;;104734;1301;22521;-33
2022/10/05 09:08:41;;;;;;;5.50;3.20;;;;;;;;;;104881;1293;27498;-33
2022/10/05 09:11:12;;;;;;;6.50;4.00;;;;;;;;;;104956;1294;22656;-33
2022/10/05 09:13:46;;;;;;;5.50;4.00;;;;;;;;;;104922;1293;23179;-32
2022/10/05 09:16:32;;;;;;;6.80;4.00;;;;;;;;;;104945;1301;23188;-33
2022/10/05 09:19:15;;;;;;;6.00;3.90;;;;;;;;;;105085;1290;28226;-31
2022/10/05 09:21:50;;;;;;;6.30;4.00;;;;;;;;;;105053;1291;22478;-33
2022/10/05 09:24:26;;;;;;;5.90;4.20;;;;;;;;;;105019;1290;26586;-33
2022/10/05 09:27:00;;;;;;;6.90;4.30;;;;;;;;;;104962;1298;22675;-33
2022/10/05 09:29:55;;;;;;;6.30;4.50;;;;;;;;;;105001;1287;22487;-33
2022/10/05 09:32:43;;;;;;;7.50;4.70;;;;;;;;;;104979;1295;22520;-33
2022/10/05 09:35:21;;;;;;;6.40;4.60;;;;;;;;;;105040;1298;22474;-33
2022/10/05 09:37:57;;;;;;;6.30;4.60;;;;;;;;;;104950;1293;22939;-32
2022/10/05 09:40:43;;;;;;;7.10;4.70;;;;;;;;;;105016;1298;24657;-32
2022/10/05 09:43:30;;;;;;;6.80;5.00;;;;;;;;;;105058;1284;22484;-32
2022/10/05 09:46:15;;;;;;;7.10;4.60;;;;;;;;;;105078;1291;22608;-33
2022/10/05 09:48:50;;;;;;;6.90;4.70;;;;;;;;;;104982;1293;25268;-33
2022/10/05 09:51:36;;;;;;;7.00;5.10;;;;;;;;;;105024;1293;22543;-33
2022/10/05 09:54:18;;;;;;;7.70;5.30;;;;;;;;;;105002;1293;25385;-33
2022/10/05 09:57:03;;;;;;;7.00;5.10;;;;;;;;;;105003;1296;22673;-33
2022/10/05 09:59:42;;;;;;;7.30;5.00;;;;;;;;;;105014;1298;22495;-33
2022/10/05 10:02:17;;;;;;;6.90;4.90;;;;;;;;;;105074;1295;22479;-33
2022/10/05 10:05:14;;;;;;;6.80;4.90;;;;;;;;;;105053;1291;22537;-33
2022/10/05 10:07:58;;;;;;;8.00;4.80;;;;;;;;;;104608;1294;24486;-33
2022/10/05 10:10:29;;;;;;;;;;;;;;;;;;104974;1291;22466;-31
2022/10/05 10:13:16;;;;;;;8.40;5.00;;;;;;;;;;105058;1291;22477;-33
2022/10/05 10:16:00;;;;;;;8.30;5.40;;;;;;;;;;104919;1289;22482;-33
2022/10/05 10:18:27;;;;;;;;;;;;;;;;;;105017;1294;22525;-34
2022/10/05 10:21:03;;;;;;;7.90;5.60;;;;;;;;;;104935;1287;22474;-34
2022/10/05 10:23:46;;;;;;;7.60;5.40;;;;;;;;;;104894;1293;22484;-35
2022/10/05 10:26:31;;;;;;;8.00;5.50;;;;;;;;;;104982;1295;22483;-34
2022/10/05 10:29:18;;;;;;;7.90;5.30;;;;;;;;;;104938;1293;25300;-34
2022/10/05 10:31:51;;;;;;;7.60;5.20;;;;;;;;;;105051;1295;22493;-34
2022/10/05 10:34:18;;;;;;;;;;;;;;;;;;105041;1294;22484;-33
2022/10/05 10:36:57;;;;;;;8.20;5.10;;;;;;;;;;105111;1290;22491;-34
2022/10/05 10:39:33;;;;;;;8.10;5.40;;;;;;;;;;105022;1293;22500;-35
2022/10/05 10:42:17;;;;;;;7.90;5.20;;;;;;;;;;105032;1286;22478;-33
2022/10/05 10:44:59;;;;;;;7.50;5.30;;;;;;;;;;104968;1287;25455;-33
2022/10/05 10:47:47;;;;;;;7.50;5.30;;;;;;;;;;105033;1294;25232;-32
2022/10/05 10:50:32;;;;;;;7.40;4.70;;;;;;;;;;105072;1290;26577;-34
2022/10/05 10:53:13;;;;;;;6.80;4.60;;;;;;;;;;105046;1292;24683;-33
2022/10/05 10:55:47;;;;;;;6.80;5.20;;;;;;;;;;105057;1292;22487;-33
2022/10/05 10:58:33;;;;;;;7.30;4.70;;;;;;;;;;105086;1292;22493;-34
2022/10/05 11:01:06;;;;;;;7.80;4.90;;;;;;;;;;104906;1289;72288;-34
2022/10/05 11:03:58;;;;;;;6.70;4.40;;;;;;;;;;104981;1293;24678;-34
2022/10/05 11:06:46;;;;;;;6.30;4.60;;;;;;;;;;105013;1284;22491;-34
2022/10/05 11:09:28;;;;;;;7.00;4.70;;;;;;;;;;104968;1291;22487;-33
2022/10/05 11:12:16;;;;;;;7.10;4.60;;;;;;;;;;105031;1287;26695;-34
2022/10/05 11:14:53;;;;;;;7.50;4.70;;;;;;;;;;105013;1293;25368;-34
2022/10/05 11:17:28;;;;;;;6.20;4.20;;;;;;;;;;105031;1293;25160;-34
2022/10/05 11:20:08;;;;;;;6.60;4.00;;;;;;;;;;104910;1294;22650;-34
2022/10/05 11:22:44;;;;;;;6.30;4.50;;;;;;;;;;104994;1293;22531;-34
2022/10/05 11:25:31;;;;;;;6.20;4.30;;;;;;;;;;105010;1293;22505;-35
2022/10/05 11:28:12;;;;;;;6.50;4.50;;;;;;;;;;104945;1294;22483;-34
2022/10/05 11:30:53;;;;;;;5.80;4.50;;;;;;;;;;104939;1293;22517;-34
2022/10/05 11:33:47;;;;;;;7.70;4.30;;;;;;;;;;105079;1292;25223;-34
2022/10/05 11:36:44;;;;;;;6.60;4.40;;;;;;;;;;105006;1287;22524;-33
2022/10/05 11:39:27;;;;;;;6.50;4.20;;;;;;;;;;105067;1291;22659;-32
2022/10/05 11:42:05;;;;;;;6.80;4.30;;;;;;;;;;105054;1284;22672;-33
2022/10/05 11:44:51;;;;;;;6.20;4.20;;;;;;;;;;105027;1295;22513;-34
2022/10/05 11:47:22;;;;;;;6.00;4.00;;;;;;;;;;105021;1290;22494;-34
2022/10/05 11:49:58;;;;;;;6.30;4.00;;;;;;;;;;104968;1294;24493;-34
2022/10/05 11:52:28;;;;;;;6.40;4.20;;;;;;;;;;105009;1293;22572;-34
2022/10/05 11:55:09;;;;;;;7.50;4.30;;;;;;;;;;104947;1287;22483;-34
2022/10/05 11:57:42;;;;;;;6.40;4.20;;;;;;;;;;104968;1284;22481;-33
2022/10/05 12:00:16;;;;;;;6.10;3.90;;;;;;;;;;104879;1294;22616;-33
2022/10/05 12:03:09;;;;;;;6.20;4.20;;;;;;;;;;105046;1291;23082;-33
2022/10/05 12:05:45;;;;;;;6.50;3.70;;;;;;;;;;105140;1286;22483;-32
2022/10/05 12:08:19;;;;;;;5.50;3.80;;;;;;;;;;105117;1301;22493;-32
2022/10/05 12:10:52;;;;;;;6.10;3.80;;;;;;;;;;104968;1291;22518;-32
2022/10/05 12:13:25;;;;;;;5.10;3.80;;;;;;;;;;104951;1295;22474;-32
2022/10/05 12:15:57;;;;;;;6.00;3.90;;;;;;;;;;105036;1287;22612;-32
2022/10/05 12:18:44;;;;;;;5.70;3.60;;;;;;;;;;104953;1292;22454;-32
2022/10/05 12:21:17;;;;;;;5.50;3.50;;;;;;;;;;104934;1294;22480;-33
2022/10/05 12:23:49;;;;;;;5.90;4.00;;;;;;;;;;105088;1290;22520;-33
2022/10/05 12:26:22;;;;;;;6.70;4.20;;;;;;;;;;105043;1286;22608;-33
2022/10/05 12:28:53;;;;;;;5.30;3.70;;;;;;;;;;105074;1285;22601;-34
2022/10/05 12:31:29;;;;;;;7.00;3.70;;;;;;;;;;104989;1291;22507;-33
2022/10/05 12:34:02;;;;;;;6.20;3.90;;;;;;;;;;104980;1294;22566;-33
2022/10/05 12:36:34;;;;;;;5.20;3.50;;;;;;;;;;104962;1294;22568;-33
2022/10/05 12:39:08;;;;;;;5.50;3.20;;;;;;;;;;105013;1300;24565;-33
2022/10/05 12:41:40;;;;;;;5.90;3.90;;;;;;;;;;104993;1286;25374;-35
2022/10/05 12:44:16;;;;;;;5.40;3.30;;;;;;;;;;105067;1295;22612;-33
2022/10/05 12:46:49;;;;;;;5.60;3.40;;;;;;;;;;105106;1292;22513;-34
2022/10/05 12:49:17;;;;;;;;;;;;;;;;;;104993;1295;22496;-33
2022/10/05 12:51:49;;;;;;;5.50;3.50;;;;;;;;;;105009;1293;22481;-31
2022/10/05 12:54:22;;;;;;;5.60;3.60;;;;;;;;;;104929;1291;22531;-31
2022/10/05 12:56:53;;;;;;;5.10;3.30;;;;;;;;;;105023;1290;22496;-33
2022/10/05 12:59:29;;;;;;;5.80;3.60;;;;;;;;;;104976;1288;23871;-31
2022/10/05 13:02:03;;;;;;;5.30;3.60;;;;;;;;;;104981;1293;24334;-33
2022/10/05 13:04:39;;;;;;;6.70;3.70;;;;;;;;;;105069;1285;22532;-33
2022/10/05 13:07:17;;;;;;;5.50;3.50;;;;;;;;;;105045;1288;22589;-33
2022/10/05 13:09:54;;;;;;;5.70;3.60;;;;;;;;;;105005;1294;22599;-33
2022/10/05 13:12:34;;;;;;;5.90;3.90;;;;;;;;;;105008;1291;24379;-32
2022/10/05 13:15:07;;;;;;;5.40;3.40;;;;;;;;;;104963;1294;22625;-33
2022/10/05 13:17:43;;;;;;;5.60;3.60;;;;;;;;;;104960;1294;22468;-33
2022/10/05 13:20:20;;;;;;;5.90;3.40;;;;;;;;;;105030;1287;22532;-34
2022/10/05 13:22:54;;;;;;;5.00;3.20;;;;;;;;;;104946;1292;22937;-34
2022/10/05 13:25:27;;;;;;;5.20;3.30;;;;;;;;;;105056;1291;22574;-34
2022/10/05 13:28:07;;;;;;;5.20;3.30;;;;;;;;;;105067;1292;23424;-34
2022/10/05 13:30:36;;;;;;;4.50;3.00;;;;;;;;;;105010;1295;22502;-33
2022/10/05 13:33:17;;;;;;;5.70;3.50;;;;;;;;;;104933;1295;22555;-34
2022/10/05 13:35:51;;;;;;;5.40;3.10;;;;;;;;;;105044;1291;23263;-33
2022/10/05 13:38:28;;;;;;;5.00;3.10;;;;;;;;;;105055;1291;22994;-34
2022/10/05 13:41:02;;;;;;;6.50;3.10;;;;;;;;;;105061;1290;25290;-32
2022/10/05 13:43:37;;;;;;;5.10;3.30;;;;;;;;;;104925;1285;22548;-37
2022/10/05 13:46:10;;;;;;;5.20;3.30;;;;;;;;;;105017;1293;22498;-35
2022/10/05 13:48:46;;;;;;;5.10;3.40;;;;;;;;;;104944;1287;22515;-36
2022/10/05 13:51:19;;;;;;;5.20;3.10;;;;;;;;;;104960;1291;22502;-34
2022/10/05 13:53:54;;;;;;;5.40;3.40;;;;;;;;;;104943;1293;22478;-35
2022/10/05 13:56:25;;;;;;;5.80;3.20;;;;;;;;;;105083;1288;22609;-34
2022/10/05 13:59:04;;;;;;;5.40;3.30;;;;;;;;;;105060;1290;22498;-34
2022/10/05 14:01:40;;;;;;;4.90;3.40;;;;;;;;;;105008;1292;22461;-34
2022/10/05 14:04:17;;;;;;;5.50;3.40;;;;;;;;;;104998;1287;22481;-34
2022/10/05 14:06:47;;;;;;;6.30;3.30;;;;;;;;;;104939;1294;22570;-34
2022/10/05 14:09:28;;;;;;;5.00;3.10;;;;;;;;;;104981;1288;22483;-35
2022/10/05 14:12:12;;;;;;;5.30;3.20;;;;;;;;;;105011;1290;22563;-34
2022/10/05 14:14:45;;;;;;;4.90;3.00;;;;;;;;;;104912;1293;24560;-34
2022/10/05 14:17:16;;;;;;;5.50;3.70;;;;;;;;;;105070;1290;22500;-34
2022/10/05 14:19:46;;;;;;;4.80;3.00;;;;;;;;;;105029;1294;22527;-34
2022/10/05 14:22:23;;;;;;;6.00;3.10;;;;;;;;;;105084;1292;22504;-35
2022/10/05 14:24:54;;;;;;;4.90;3.00;;;;;;;;;;105000;1286;22478;-33
2022/10/05 14:27:24;;;;;;;5.10;3.00;;;;;;;;;;105002;1291;22491;-35
2022/10/05 14:29:55;;;;;;;5.60;3.20;;;;;;;;;;104991;1287;24732;-34
2022/10/05 14:32:25;;;;;;;5.10;3.40;;;;;;;;;;104953;1294;22523;-35
2022/10/05 14:35:06;;;;;;;5.20;3.10;;;;;;;;;;104984;1284;22549;-34
2022/10/05 14:37:43;;;;;;;5.30;3.30;;;;;;;;;;105092;1291;22593;-34
2022/10/05 14:40:25;;;;;;;5.50;3.30;;;;;;;;;;105011;1293;24545;-34
2022/10/05 14:42:54;;;;;;;4.90;3.10;;;;;;;;;;105102;1291;26511;-34
2022/10/05 14:45:24;;;;;;;5.30;3.40;;;;;;;;;;105011;1293;24556;-35
2022/10/05 14:47:55;;;;;;;5.80;3.30;;;;;;;;;;104929;1287;24494;-34
2022/10/05 14:50:28;;;;;;;5.30;3.20;;;;;;;;;;104947;1287;22501;-34
2022/10/05 14:53:17;;;;;;;4.80;3.00;;;;;;;;;;105017;1290;22531;-35
2022/10/05 14:56:05;;;;;;;5.00;3.00;;;;;;;;;;105024;1291;22493;-34
2022/10/05 14:58:41;;;;;;;5.50;3.20;;;;;;;;;;104975;1294;25275;-34
2022/10/05 15:01:14;;;;;;;5.00;3.00;;;;;;;;;;105090;1287;22636;-34
2022/10/05 15:03:46;;;;;;;4.70;2.90;;;;;;;;;;105036;1284;22475;-36
2022/10/05 15:06:20;;;;;;;4.70;2.90;;;;;;;;;;104985;1287;28883;-34
2022/10/05 15:08:59;;;;;;;5.80;3.30;;;;;;;;;;104985;1287;23168;-35
2022/10/05 15:11:32;;;;;;;5.50;3.20;;;;;;;;;;104982;1288;23869;-35
2022/10/05 15:14:02;;;;;;;5.30;3.40;;;;;;;;;;105034;1294;22498;-34
2022/10/05 15:16:33;;;;;;;5.20;2.90;;;;;;;;;;104907;1295;28608;-34
2022/10/05 15:19:14;;;;;;;5.40;3.30;;;;;;;;;;104999;1287;24591;-36
2022/10/05 15:21:54;;;;;;;5.40;3.40;;;;;;;;;;105003;1287;22549;-35
2022/10/05 15:24:25;;;;;;;5.70;3.10;;;;;;;;;;104892;1287;22474;-34
2022/10/05 15:26:56;;;;;;;5.10;3.10;;;;;;;;;;105050;1292;29594;-35